Time;durP1;ratioP1;P1;durP2;ratioP2;P2;SDS_P1;SDS_P2;PMS_P1;PMS_P2;Temp;Humidity;BMP_temperature;BMP_pressure;BME280_temperature;BME280_humidity;BME280_pressure;Samples;Min_cycle;Max_cycle;Signal;HPM_P1;HPM_P2
2022/10/31 00:01:57;;;;;;;;;;;;;;;;;;5053526;28;19999;-60
2022/10/31 00:04:23;;;;;;;;;;;;;;;;;;5064644;28;19919;-59
2022/10/31 00:06:49;;;;;;;;;;;;;;;;;;5067559;28;19940;-60
2022/10/31 00:09:15;;;;;;;;;;;;;;;;;;5054501;28;19909;-60
2022/10/31 00:11:41;;;;;;;;;;;;;;;;;;5066557;28;20310;-60
2022/10/31 00:14:06;;;;;;;;;;;;;;;;;;5054480;28;20008;-59
2022/10/31 00:16:32;;;;;;;;;;;;;;;;;;5072054;28;19912;-60
2022/10/31 00:18:58;;;;;;;;;;;;;;;;;;5066197;28;20242;-61
2022/10/31 00:21:24;;;;;;;;;;;;;;;;;;5065014;28;19966;-60
2022/10/31 00:23:50;;;;;;;;;;;;;;;;;;5058646;28;19916;-60
2022/10/31 00:26:16;;;;;;;;;;;;;;;;;;5067795;28;19920;-60
2022/10/31 00:28:42;;;;;;;;;;;;;;;;;;5070841;28;19979;-60
2022/10/31 00:31:08;;;;;;;;;;;;;;;;;;5055419;28;20252;-60
2022/10/31 00:33:34;;;;;;;;;;;;;;;;;;5067535;28;20061;-60
2022/10/31 00:35:59;;;;;;;;;;;;;;;;;;5067544;28;20175;-60
2022/10/31 00:38:25;;;;;;;;;;;;;;;;;;5061153;28;20454;-59
2022/10/31 00:40:51;;;;;;;;;;;;;;;;;;5072162;28;19927;-60
2022/10/31 00:43:17;;;;;;;;;;;;;;;;;;5066459;28;19916;-60
2022/10/31 00:45:43;;;;;;;;;;;;;;;;;;5065754;28;19959;-60
2022/10/31 00:48:09;;;;;;;;;;;;;;;;;;5060705;28;19992;-59
2022/10/31 00:50:35;;;;;;;;;;;;;;;;;;5073326;28;19958;-60
2022/10/31 00:53:01;;;;;;;;;;;;;;;;;;5070804;28;19963;-60
2022/10/31 00:55:27;;;;;;;;;;;;;;;;;;5060060;28;19916;-61
2022/10/31 00:57:53;;;;;;;;;;;;;;;;;;5072866;28;19912;-59
2022/10/31 01:00:18;;;;;;;;;;;;;;;;;;5068186;28;19918;-59
2022/10/31 01:02:44;;;;;;;;;;;;;;;;;;5065830;28;20383;-60
2022/10/31 01:05:10;;;;;;;;;;;;;;;;;;5060998;28;19919;-60
2022/10/31 01:07:36;;;;;;;;;;;;;;;;;;5072586;28;20304;-59
2022/10/31 01:10:02;;;;;;;;;;;;;;;;;;5061595;28;20013;-60
2022/10/31 01:12:28;;;;;;;;;;;;;;;;;;5072949;28;19912;-60
2022/10/31 01:14:54;;;;;;;;;;;;;;;;;;5057760;28;19916;-59
2022/10/31 01:17:20;;;;;;;;;;;;;;;;;;5060798;28;19957;-60
2022/10/31 01:19:46;;;;;;;;;;;;;;;;;;5055480;28;19974;-60
2022/10/31 01:22:11;;;;;;;;;;;;;;;;;;5071055;28;19908;-60
2022/10/31 01:24:37;;;;;;;;;;;;;;;;;;5065207;28;20376;-60
2022/10/31 01:27:03;;;;;;;;;;;;;;;;;;5062570;28;19944;-59
2022/10/31 01:29:29;;;;;;;;;;;;;;;;;;5062761;28;20259;-60
2022/10/31 01:31:55;;;;;;;;;;;;;;;;;;5072589;28;19995;-60
2022/10/31 01:34:21;;;;;;;;;;;;;;;;;;5067610;28;19922;-60
2022/10/31 01:36:50;;;;;;;;;;;;;;;;;;5063688;28;19978;-60
2022/10/31 01:39:16;;;;;;;;;;;;;;;;;;5060892;28;19947;-60
2022/10/31 01:41:42;;;;;;;;;;;;;;;;;;5071568;28;21826;-60
2022/10/31 01:44:08;;;;;;;;;;;;;;;;;;5071255;28;19916;-60
2022/10/31 01:46:34;;;;;;;;;;;;;;;;;;5065767;28;20334;-59
2022/10/31 01:49:00;;;;;;;;;;;;;;;;;;5062653;28;19962;-60
2022/10/31 01:51:26;;;;;;;;;;;;;;;;;;5063759;28;20003;-60
2022/10/31 01:53:52;;;;;;;;;;;;;;;;;;5068703;28;19917;-60
2022/10/31 01:56:17;;;;;;;;;;;;;;;;;;5059909;28;19916;-60
2022/10/31 01:58:43;;;;;;;;;;;;;;;;;;5063244;28;20391;-60
2022/10/31 02:01:09;;;;;;;;;;;;;;;;;;5064720;28;19916;-60
2022/10/31 02:03:35;;;;;;;;;;;;;;;;;;5063177;28;20421;-61
2022/10/31 02:06:01;;;;;;;;;;;;;;;;;;5066316;28;19956;-61
2022/10/31 02:08:27;;;;;;;;;;;;;;;;;;5057407;28;19948;-61
2022/10/31 02:10:53;;;;;;;;;;;;;;;;;;5065539;28;19912;-60
2022/10/31 02:13:19;;;;;;;;;;;;;;;;;;5057426;28;19941;-60
2022/10/31 02:15:45;;;;;;;;;;;;;;;;;;5067337;28;19995;-60
2022/10/31 02:18:11;;;;;;;;;;;;;;;;;;5058531;28;19917;-61
2022/10/31 02:20:37;;;;;;;;;;;;;;;;;;5064283;28;20005;-60
2022/10/31 02:23:02;;;;;;;;;;;;;;;;;;5062645;28;19924;-59
2022/10/31 02:25:28;;;;;;;;;;;;;;;;;;5060093;28;19943;-60
2022/10/31 02:27:54;;;;;;;;;;;;;;;;;;5066337;28;19966;-60
2022/10/31 02:30:20;;;;;;;;;;;;;;;;;;5053675;28;19909;-61
2022/10/31 02:32:47;;;;;;;;;;;;;;;;;;5071745;28;19985;-61
2022/10/31 02:35:12;;;;;;;;;;;;;;;;;;5063459;28;19970;-61
2022/10/31 02:37:38;;;;;;;;;;;;;;;;;;5051738;28;19955;-61
2022/10/31 02:40:04;;;;;;;;;;;;;;;;;;5056305;28;19916;-61
2022/10/31 02:42:30;;;;;;;;;;;;;;;;;;5071521;28;20395;-61
2022/10/31 02:44:56;;;;;;;;;;;;;;;;;;5060063;28;20371;-60
2022/10/31 02:47:22;;;;;;;;;;;;;;;;;;5051567;28;19966;-61
2022/10/31 02:49:48;;;;;;;;;;;;;;;;;;5056520;28;19955;-61
2022/10/31 02:52:14;;;;;;;;;;;;;;;;;;5062556;28;19951;-61
2022/10/31 02:54:40;;;;;;;;;;;;;;;;;;5060635;28;19935;-61
2022/10/31 02:57:06;;;;;;;;;;;;;;;;;;5061897;28;19951;-61
2022/10/31 02:59:32;;;;;;;;;;;;;;;;;;5058440;28;19919;-60
2022/10/31 03:01:58;;;;;;;;;;;;;;;;;;5056055;28;20368;-61
2022/10/31 03:04:24;;;;;;;;;;;;;;;;;;5053040;28;19916;-61
2022/10/31 03:06:50;;;;;;;;;;;;;;;;;;5058490;28;20021;-61
2022/10/31 03:09:15;;;;;;;;;;;;;;;;;;5056640;28;19921;-61
2022/10/31 03:11:41;;;;;;;;;;;;;;;;;;5069218;28;19959;-60
2022/10/31 03:14:07;;;;;;;;;;;;;;;;;;5069977;28;20007;-61
2022/10/31 03:16:33;;;;;;;;;;;;;;;;;;5068363;28;19932;-61
2022/10/31 03:18:59;;;;;;;;;;;;;;;;;;5058634;28;20279;-61
2022/10/31 03:21:25;;;;;;;;;;;;;;;;;;5070897;28;19908;-60
2022/10/31 03:23:51;;;;;;;;;;;;;;;;;;5056134;28;19968;-61
2022/10/31 03:26:17;;;;;;;;;;;;;;;;;;5058916;28;19999;-61
2022/10/31 03:28:43;;;;;;;;;;;;;;;;;;5062937;28;20422;-60
2022/10/31 03:31:08;;;;;;;;;;;;;;;;;;5064551;28;20024;-60
2022/10/31 03:33:34;;;;;;;;;;;;;;;;;;5063062;28;19920;-61
2022/10/31 03:36:00;;;;;;;;;;;;;;;;;;5054742;28;19913;-61
2022/10/31 03:38:26;;;;;;;;;;;;;;;;;;5056313;28;20012;-61
2022/10/31 03:40:52;;;;;;;;;;;;;;;;;;5073200;28;20339;-61
2022/10/31 03:43:18;;;;;;;;;;;;;;;;;;5072220;28;20405;-61
2022/10/31 03:45:44;;;;;;;;;;;;;;;;;;5060338;28;19963;-60
2022/10/31 03:48:10;;;;;;;;;;;;;;;;;;5067398;28;19917;-61
2022/10/31 03:50:36;;;;;;;;;;;;;;;;;;5066432;28;19966;-60
2022/10/31 03:53:02;;;;;;;;;;;;;;;;;;5067118;28;19916;-61
2022/10/31 03:55:27;;;;;;;;;;;;;;;;;;5064531;28;19912;-61
2022/10/31 03:57:53;;;;;;;;;;;;;;;;;;5069665;28;20474;-61
2022/10/31 04:00:19;;;;;;;;;;;;;;;;;;5064309;28;19913;-60
2022/10/31 04:02:45;;;;;;;;;;;;;;;;;;5064783;28;19924;-60
2022/10/31 04:05:11;;;;;;;;;;;;;;;;;;5060433;28;20003;-61
2022/10/31 04:07:37;;;;;;;;;;;;;;;;;;5057041;28;19913;-60
2022/10/31 04:10:03;;;;;;;;;;;;;;;;;;5071229;28;20226;-61
2022/10/31 04:12:29;;;;;;;;;;;;;;;;;;5060676;28;19952;-61
2022/10/31 04:14:55;;;;;;;;;;;;;;;;;;5057319;28;20012;-61
2022/10/31 04:17:20;;;;;;;;;;;;;;;;;;5056472;28;20527;-61
2022/10/31 04:19:46;;;;;;;;;;;;;;;;;;5064450;28;19921;-61
2022/10/31 04:22:12;;;;;;;;;;;;;;;;;;5072453;28;19912;-61
2022/10/31 04:24:38;;;;;;;;;;;;;;;;;;5070501;28;20003;-61
2022/10/31 04:27:04;;;;;;;;;;;;;;;;;;5061572;28;19963;-58
2022/10/31 04:29:30;;;;;;;;;;;;;;;;;;5066036;28;19915;-61
2022/10/31 04:31:56;;;;;;;;;;;;;;;;;;5057753;28;19917;-61
2022/10/31 04:34:22;;;;;;;;;;;;;;;;;;5062616;28;19948;-61
2022/10/31 04:36:48;;;;;;;;;;;;;;;;;;5060589;28;19923;-60
2022/10/31 04:39:13;;;;;;;;;;;;;;;;;;5060095;28;20365;-60
2022/10/31 04:41:39;;;;;;;;;;;;;;;;;;5057542;28;19963;-60
2022/10/31 04:44:05;;;;;;;;;;;;;;;;;;5067985;28;20372;-61
2022/10/31 04:46:31;;;;;;;;;;;;;;;;;;5060364;28;19909;-61
2022/10/31 04:48:57;;;;;;;;;;;;;;;;;;5062220;28;20057;-61
2022/10/31 04:51:23;;;;;;;;;;;;;;;;;;5068474;28;20367;-61
2022/10/31 04:53:49;;;;;;;;;;;;;;;;;;5066874;28;19951;-60
2022/10/31 04:56:15;;;;;;;;;;;;;;;;;;5054143;28;20291;-60
2022/10/31 04:58:41;;;;;;;;;;;;;;;;;;5064907;28;19946;-60
2022/10/31 05:01:06;;;;;;;;;;;;;;;;;;5066011;28;20701;-60
2022/10/31 05:03:32;;;;;;;;;;;;;;;;;;5069784;28;19962;-60
2022/10/31 05:05:58;;;;;;;;;;;;;;;;;;5072042;28;19919;-61
2022/10/31 05:08:24;;;;;;;;;;;;;;;;;;5055480;28;20372;-60
2022/10/31 05:10:51;;;;;;;;;;;;;;;;;;5069907;28;19959;-60
2022/10/31 05:13:17;;;;;;;;;;;;;;;;;;5055957;28;19912;-60
2022/10/31 05:15:43;;;;;;;;;;;;;;;;;;5067570;28;19962;-60
2022/10/31 05:18:09;;;;;;;;;;;;;;;;;;5060449;28;20360;-60
2022/10/31 05:20:35;;;;;;;;;;;;;;;;;;5064420;28;19999;-61
2022/10/31 05:23:01;;;;;;;;;;;;;;;;;;5062534;28;19956;-60
2022/10/31 05:25:27;;;;;;;;;;;;;;;;;;5065979;28;19917;-61
2022/10/31 05:27:53;;;;;;;;;;;;;;;;;;5072037;28;20393;-60
2022/10/31 05:30:19;;;;;;;;;;;;;;;;;;5056547;28;20000;-60
2022/10/31 05:32:45;;;;;;;;;;;;;;;;;;5063657;28;20291;-59
2022/10/31 05:35:11;;;;;;;;;;;;;;;;;;5067591;28;19913;-60
2022/10/31 05:37:37;;;;;;;;;;;;;;;;;;5053101;28;19999;-60
2022/10/31 05:40:03;;;;;;;;;;;;;;;;;;5067136;28;19923;-60
2022/10/31 05:42:29;;;;;;;;;;;;;;;;;;5061645;28;19917;-60
2022/10/31 05:44:55;;;;;;;;;;;;;;;;;;5062572;28;19916;-60
2022/10/31 05:47:21;;;;;;;;;;;;;;;;;;5062238;28;19938;-61
2022/10/31 05:49:47;;;;;;;;;;;;;;;;;;5057391;28;19976;-60
2022/10/31 05:52:13;;;;;;;;;;;;;;;;;;5059269;28;19956;-61
2022/10/31 05:54:38;;;;;;;;;;;;;;;;;;5058161;28;20322;-61
2022/10/31 05:57:04;;;;;;;;;;;;;;;;;;5060033;28;19919;-61
2022/10/31 05:59:30;;;;;;;;;;;;;;;;;;5070585;28;19916;-60
2022/10/31 06:01:56;;;;;;;;;;;;;;;;;;5068686;28;19955;-61
2022/10/31 06:04:22;;;;;;;;;;;;;;;;;;5070997;28;19959;-60
2022/10/31 06:06:48;;;;;;;;;;;;;;;;;;5065129;28;19919;-61
2022/10/31 06:09:14;;;;;;;;;;;;;;;;;;5059247;28;19921;-60
2022/10/31 06:11:40;;;;;;;;;;;;;;;;;;5052534;28;20367;-58
2022/10/31 06:14:06;;;;;;;;;;;;;;;;;;5062028;28;19993;-61
2022/10/31 06:16:32;;;;;;;;;;;;;;;;;;5067238;28;19916;-61
2022/10/31 06:18:58;;;;;;;;;;;;;;;;;;5058700;28;19955;-61
2022/10/31 06:21:23;;;;;;;;;;;;;;;;;;5070070;28;19912;-60
2022/10/31 06:23:49;;;;;;;;;;;;;;;;;;5066227;28;19916;-61
2022/10/31 06:26:15;;;;;;;;;;;;;;;;;;5052391;28;19909;-61
2022/10/31 06:28:41;;;;;;;;;;;;;;;;;;5057123;28;19943;-61
2022/10/31 06:31:07;;;;;;;;;;;;;;;;;;5053688;28;19952;-61
2022/10/31 06:33:33;;;;;;;;;;;;;;;;;;5054285;28;20026;-61
2022/10/31 06:35:59;;;;;;;;;;;;;;;;;;5051979;28;19913;-61
2022/10/31 06:38:25;;;;;;;;;;;;;;;;;;5061371;28;20356;-60
2022/10/31 06:40:51;;;;;;;;;;;;;;;;;;5056310;28;19913;-60
2022/10/31 06:43:17;;;;;;;;;;;;;;;;;;5069248;28;19920;-61
2022/10/31 06:45:43;;;;;;;;;;;;;;;;;;5057401;28;19944;-61
2022/10/31 06:48:09;;;;;;;;;;;;;;;;;;5063208;28;19967;-61
2022/10/31 06:50:35;;;;;;;;;;;;;;;;;;5068504;28;19916;-61
2022/10/31 06:53:01;;;;;;;;;;;;;;;;;;5070720;28;20023;-61
2022/10/31 06:55:27;;;;;;;;;;;;;;;;;;5063641;28;19920;-61
2022/10/31 06:57:52;;;;;;;;;;;;;;;;;;5064837;28;19912;-61
2022/10/31 07:00:18;;;;;;;;;;;;;;;;;;5062959;28;20295;-61
2022/10/31 07:02:44;;;;;;;;;;;;;;;;;;5061617;28;19920;-61
2022/10/31 07:05:10;;;;;;;;;;;;;;;;;;5061960;28;19956;-61
2022/10/31 07:07:36;;;;;;;;;;;;;;;;;;5053298;28;19912;-59
2022/10/31 07:10:02;;;;;;;;;;;;;;;;;;5059442;28;20043;-60
2022/10/31 07:12:28;;;;;;;;;;;;;;;;;;5069363;28;20075;-61
2022/10/31 07:14:54;;;;;;;;;;;;;;;;;;5067660;28;19958;-60
2022/10/31 07:17:20;;;;;;;;;;;;;;;;;;5067728;28;19919;-60
2022/10/31 07:19:45;;;;;;;;;;;;;;;;;;5053547;28;19963;-60
2022/10/31 07:22:11;;;;;;;;;;;;;;;;;;5069684;28;19923;-60
2022/10/31 07:24:37;;;;;;;;;;;;;;;;;;5059632;28;20465;-61
2022/10/31 07:27:03;;;;;;;;;;;;;;;;;;5063192;28;20032;-60
2022/10/31 07:29:29;;;;;;;;;;;;;;;;;;5064468;28;19913;-60
2022/10/31 07:31:55;;;;;;;;;;;;;;;;;;5065082;28;19919;-59
2022/10/31 07:34:21;;;;;;;;;;;;;;;;;;5064389;28;20268;-59
2022/10/31 07:36:47;;;;;;;;;;;;;;;;;;5066578;28;19963;-60
2022/10/31 07:39:13;;;;;;;;;;;;;;;;;;5062576;28;20146;-61
2022/10/31 07:41:39;;;;;;;;;;;;;;;;;;5064049;28;19920;-60
2022/10/31 07:44:04;;;;;;;;;;;;;;;;;;5065168;28;19917;-61
2022/10/31 07:46:30;;;;;;;;;;;;;;;;;;5057366;28;20544;-59
2022/10/31 07:48:56;;;;;;;;;;;;;;;;;;5058156;28;19913;-61
2022/10/31 07:51:23;;;;;;;;;;;;;;;;;;5052949;28;20529;-61
2022/10/31 07:53:49;;;;;;;;;;;;;;;;;;5051388;28;19909;-61
2022/10/31 07:56:15;;;;;;;;;;;;;;;;;;5065148;28;19959;-61
2022/10/31 07:58:41;;;;;;;;;;;;;;;;;;5058406;28;19913;-61
2022/10/31 08:01:07;;;;;;;;;;;;;;;;;;5058809;28;19966;-61
2022/10/31 08:03:33;;;;;;;;;;;;;;;;;;5059687;28;20035;-61
2022/10/31 08:05:59;;;;;;;;;;;;;;;;;;5069050;28;19921;-61
2022/10/31 08:08:27;;;;;;;;;;;;;;;;;;5066606;28;19919;-61
2022/10/31 08:10:53;;;;;;;;;;;;;;;;;;5062006;28;20283;-61
2022/10/31 08:13:19;;;;;;;;;;;;;;;;;;5052445;28;19995;-61
2022/10/31 08:15:49;;;;;;;;;;;;;;;;;;5057855;28;19923;-61
2022/10/31 08:18:15;;;;;;;;;;;;;;;;;;5061881;28;19912;-60
2022/10/31 08:20:41;;;;;;;;;;;;;;;;;;5068284;28;19996;-60
2022/10/31 08:23:07;;;;;;;;;;;;;;;;;;5062023;28;19921;-61
2022/10/31 08:25:33;;;;;;;;;;;;;;;;;;5064234;28;20272;-61
2022/10/31 08:27:59;;;;;;;;;;;;;;;;;;5069961;28;19913;-61
2022/10/31 08:30:25;;;;;;;;;;;;;;;;;;5064563;28;19951;-61
2022/10/31 08:32:51;;;;;;;;;;;;;;;;;;5070842;28;20424;-61
2022/10/31 08:35:17;;;;;;;;;;;;;;;;;;5068239;28;19917;-60
2022/10/31 08:37:43;;;;;;;;;;;;;;;;;;5073090;28;19936;-61
2022/10/31 08:40:08;;;;;;;;;;;;;;;;;;5071553;28;19963;-61
2022/10/31 08:42:34;;;;;;;;;;;;;;;;;;5071265;28;20384;-61
2022/10/31 08:45:00;;;;;;;;;;;;;;;;;;5061399;28;19948;-60
2022/10/31 08:47:27;;;;;;;;;;;;;;;;;;5071862;28;19920;-60
2022/10/31 08:49:53;;;;;;;;;;;;;;;;;;5065484;28;19920;-61
2022/10/31 08:52:19;;;;;;;;;;;;;;;;;;5063503;28;19952;-61
2022/10/31 08:54:45;;;;;;;;;;;;;;;;;;5071551;28;20386;-61
2022/10/31 08:57:11;;;;;;;;;;;;;;;;;;5072475;28;19913;-60
2022/10/31 08:59:37;;;;;;;;;;;;;;;;;;5059748;28;19916;-60
2022/10/31 09:02:03;;;;;;;;;;;;;;;;;;5063692;28;19924;-61
2022/10/31 09:04:28;;;;;;;;;;;;;;;;;;5065989;28;20019;-61
2022/10/31 09:06:54;;;;;;;;;;;;;;;;;;5069367;28;19912;-61
2022/10/31 09:09:20;;;;;;;;;;;;;;;;;;5068959;28;19963;-61
2022/10/31 09:11:46;;;;;;;;;;;;;;;;;;5053029;28;20419;-62
2022/10/31 09:14:12;;;;;;;;;;;;;;;;;;5064943;28;19923;-61
2022/10/31 09:16:38;;;;;;;;;;;;;;;;;;5062308;28;20308;-61
2022/10/31 09:19:04;;;;;;;;;;;;;;;;;;5069920;28;19913;-61
2022/10/31 09:21:30;;;;;;;;;;;;;;;;;;5065095;28;20015;-60
2022/10/31 09:23:56;;;;;;;;;;;;;;;;;;5066746;28;20355;-60
2022/10/31 09:26:21;;;;;;;;;;;;;;;;;;5074039;28;19922;-61
2022/10/31 09:28:47;;;;;;;;;;;;;;;;;;5070533;28;19964;-61
2022/10/31 09:31:13;;;;;;;;;;;;;;;;;;5071312;28;20444;-60
2022/10/31 09:33:39;;;;;;;;;;;;;;;;;;5061437;28;19921;-59
2022/10/31 09:36:05;;;;;;;;;;;;;;;;;;5066683;28;19952;-60
2022/10/31 09:38:31;;;;;;;;;;;;;;;;;;5071417;28;20287;-60
2022/10/31 09:40:57;;;;;;;;;;;;;;;;;;5066370;28;19926;-60
2022/10/31 09:43:23;;;;;;;;;;;;;;;;;;5077823;28;19916;-59
2022/10/31 09:45:49;;;;;;;;;;;;;;;;;;5074253;28;20370;-59
2022/10/31 09:48:15;;;;;;;;;;;;;;;;;;5071088;28;19939;-59
2022/10/31 09:50:40;;;;;;;;;;;;;;;;;;5071537;28;20305;-59
2022/10/31 09:53:06;;;;;;;;;;;;;;;;;;5072910;28;20387;-59
2022/10/31 09:55:32;;;;;;;;;;;;;;;;;;5066837;28;19944;-59
2022/10/31 09:57:58;;;;;;;;;;;;;;;;;;5067258;28;19913;-59
2022/10/31 10:00:24;;;;;;;;;;;;;;;;;;5065502;28;20015;-59
2022/10/31 10:02:50;;;;;;;;;;;;;;;;;;5067654;28;19931;-57
2022/10/31 10:05:16;;;;;;;;;;;;;;;;;;5070539;28;19920;-60
2022/10/31 10:07:42;;;;;;;;;;;;;;;;;;5071475;28;19963;-58
2022/10/31 10:10:08;;;;;;;;;;;;;;;;;;5066636;28;19970;-60
2022/10/31 10:12:34;;;;;;;;;;;;;;;;;;5068447;28;19984;-59
2022/10/31 10:14:59;;;;;;;;;;;;;;;;;;5068131;28;19912;-60
2022/10/31 10:17:26;;;;;;;;;;;;;;;;;;5064650;28;20422;-60
2022/10/31 10:19:52;;;;;;;;;;;;;;;;;;5062715;28;20003;-59
2022/10/31 10:22:18;;;;;;;;;;;;;;;;;;5059550;28;19999;-59
2022/10/31 10:24:44;;;;;;;;;;;;;;;;;;5070841;28;19916;-58
2022/10/31 10:27:10;;;;;;;;;;;;;;;;;;5071564;28;20421;-59
2022/10/31 10:29:36;;;;;;;;;;;;;;;;;;5061723;28;20024;-59
2022/10/31 10:32:02;;;;;;;;;;;;;;;;;;5060244;28;19916;-59
2022/10/31 10:34:28;;;;;;;;;;;;;;;;;;5068480;28;19958;-60
2022/10/31 10:36:53;;;;;;;;;;;;;;;;;;5066010;28;20260;-58
2022/10/31 10:39:19;;;;;;;;;;;;;;;;;;5070449;28;19913;-59
2022/10/31 10:41:45;;;;;;;;;;;;;;;;;;5064529;28;19909;-58
2022/10/31 10:44:11;;;;;;;;;;;;;;;;;;5064400;28;20276;-58
2022/10/31 10:49:22;;;;;;;;;;;;;;;;;;5067176;28;20066;-58
2022/10/31 10:51:48;;;;;;;;;;;;;;;;;;5069750;28;19995;-58
2022/10/31 10:54:14;;;;;;;;;;;;;;;;;;5064373;28;19917;-60
2022/10/31 10:56:40;;;;;;;;;;;;;;;;;;5070947;28;20295;-60
2022/10/31 10:59:06;;;;;;;;;;;;;;;;;;5071396;28;20376;-60
2022/10/31 11:01:32;;;;;;;;;;;;;;;;;;5069444;28;19955;-60
2022/10/31 11:03:58;;;;;;;;;;;;;;;;;;5061546;28;20387;-60
2022/10/31 11:06:25;;;;;;;;;;;;;;;;;;5062464;28;19955;-60
2022/10/31 11:08:51;;;;;;;;;;;;;;;;;;5069970;28;19924;-57
2022/10/31 11:11:17;;;;;;;;;;;;;;;;;;5056534;28;20349;-60
2022/10/31 11:13:43;;;;;;;;;;;;;;;;;;5063866;28;19955;-60
2022/10/31 11:16:10;;;;;;;;;;;;;;;;;;5070137;28;19908;-59
2022/10/31 11:18:35;;;;;;;;;;;;;;;;;;5062951;28;19917;-60
2022/10/31 11:21:03;;;;;;;;;;;;;;;;;;5066171;28;19964;-60
2022/10/31 11:23:29;;;;;;;;;;;;;;;;;;5050761;28;19948;-60
2022/10/31 11:25:55;;;;;;;;;;;;;;;;;;5057395;28;19960;-60
2022/10/31 11:28:20;;;;;;;;;;;;;;;;;;5070544;28;20328;-60
2022/10/31 11:30:46;;;;;;;;;;;;;;;;;;5057984;28;20404;-60
2022/10/31 11:33:12;;;;;;;;;;;;;;;;;;5062989;28;19959;-59
2022/10/31 11:35:38;;;;;;;;;;;;;;;;;;5057548;28;20050;-58
2022/10/31 11:38:05;;;;;;;;;;;;;;;;;;5063342;28;20555;-60
2022/10/31 11:40:31;;;;;;;;;;;;;;;;;;5051458;28;19913;-60
2022/10/31 11:42:57;;;;;;;;;;;;;;;;;;5066175;28;19931;-58
2022/10/31 11:45:23;;;;;;;;;;;;;;;;;;5055799;28;20386;-56
2022/10/31 11:47:49;;;;;;;;;;;;;;;;;;5054221;28;19913;-59
2022/10/31 11:50:14;;;;;;;;;;;;;;;;;;5059746;28;20367;-60
2022/10/31 11:52:40;;;;;;;;;;;;;;;;;;5061197;28;20364;-61
2022/10/31 11:55:06;;;;;;;;;;;;;;;;;;5070500;28;20003;-60
2022/10/31 11:57:32;;;;;;;;;;;;;;;;;;5063091;28;19956;-60
2022/10/31 11:59:58;;;;;;;;;;;;;;;;;;5050206;28;19909;-60
2022/10/31 12:02:24;;;;;;;;;;;;;;;;;;5054629;28;19920;-60
2022/10/31 12:04:50;;;;;;;;;;;;;;;;;;5055797;28;20356;-60
2022/10/31 12:07:16;;;;;;;;;;;;;;;;;;5068735;28;20015;-59
2022/10/31 12:09:42;;;;;;;;;;;;;;;;;;5067804;28;19935;-60
2022/10/31 12:12:08;;;;;;;;;;;;;;;;;;5064669;28;20437;-60
2022/10/31 12:14:33;;;;;;;;;;;;;;;;;;5066590;28;19912;-58
2022/10/31 12:16:59;;;;;;;;;;;;;;;;;;5072811;28;19912;-58
2022/10/31 12:19:25;;;;;;;;;;;;;;;;;;5071711;28;19955;-57
2022/10/31 12:21:51;;;;;;;;;;;;;;;;;;5060290;28;20439;-60
2022/10/31 12:24:17;;;;;;;;;;;;;;;;;;5057451;28;19924;-58
2022/10/31 12:26:43;;;;;;;;;;;;;;;;;;5064026;28;19970;-57
2022/10/31 12:29:09;;;;;;;;;;;;;;;;;;5058338;28;19994;-60
2022/10/31 12:31:35;;;;;;;;;;;;;;;;;;5059102;28;19948;-61
2022/10/31 12:34:01;;;;;;;;;;;;;;;;;;5069880;28;19971;-61
2022/10/31 12:36:27;;;;;;;;;;;;;;;;;;5054680;28;19959;-61
2022/10/31 12:38:53;;;;;;;;;;;;;;;;;;5068788;28;19948;-61
2022/10/31 12:41:18;;;;;;;;;;;;;;;;;;5070154;28;20287;-61
2022/10/31 12:43:44;;;;;;;;;;;;;;;;;;5070172;28;20016;-61
2022/10/31 12:46:10;;;;;;;;;;;;;;;;;;5064571;28;19952;-60
2022/10/31 12:48:36;;;;;;;;;;;;;;;;;;5064974;28;19964;-61
2022/10/31 12:51:02;;;;;;;;;;;;;;;;;;5060475;28;19916;-61
2022/10/31 12:53:28;;;;;;;;;;;;;;;;;;5060409;28;20083;-61
2022/10/31 12:55:54;;;;;;;;;;;;;;;;;;5063703;28;19962;-61
2022/10/31 12:58:20;;;;;;;;;;;;;;;;;;5060008;28;20400;-61
2022/10/31 13:00:46;;;;;;;;;;;;;;;;;;5052513;28;19913;-60
2022/10/31 13:03:12;;;;;;;;;;;;;;;;;;5072339;28;20345;-61
2022/10/31 13:05:38;;;;;;;;;;;;;;;;;;5067587;28;19963;-60
2022/10/31 13:08:03;;;;;;;;;;;;;;;;;;5065346;28;20318;-60
2022/10/31 13:10:29;;;;;;;;;;;;;;;;;;5062364;28;19917;-61
2022/10/31 13:12:55;;;;;;;;;;;;;;;;;;5068854;28;20032;-60
2022/10/31 13:15:21;;;;;;;;;;;;;;;;;;5069320;28;19947;-61
2022/10/31 13:17:47;;;;;;;;;;;;;;;;;;5057854;28;19923;-60
2022/10/31 13:20:13;;;;;;;;;;;;;;;;;;5067418;28;20015;-61
2022/10/31 13:22:39;;;;;;;;;;;;;;;;;;5071649;28;20020;-61
2022/10/31 13:25:05;;;;;;;;;;;;;;;;;;5057973;28;19913;-60
2022/10/31 13:27:31;;;;;;;;;;;;;;;;;;5061794;28;19920;-61
2022/10/31 13:29:57;;;;;;;;;;;;;;;;;;5067743;28;20283;-61
2022/10/31 13:32:23;;;;;;;;;;;;;;;;;;5055867;28;19966;-61
2022/10/31 13:34:49;;;;;;;;;;;;;;;;;;5059331;28;20471;-60
2022/10/31 13:37:15;;;;;;;;;;;;;;;;;;5070816;28;19952;-61
2022/10/31 13:39:40;;;;;;;;;;;;;;;;;;5067882;28;19965;-60
2022/10/31 13:42:06;;;;;;;;;;;;;;;;;;5052741;28;19912;-61
2022/10/31 13:44:34;;;;;;;;;;;;;;;;;;5068182;28;19924;-60
2022/10/31 13:47:00;;;;;;;;;;;;;;;;;;5060895;28;19999;-60
2022/10/31 13:49:26;;;;;;;;;;;;;;;;;;5058535;28;20027;-59
2022/10/31 13:51:52;;;;;;;;;;;;;;;;;;5070077;28;19913;-61
2022/10/31 13:54:18;;;;;;;;;;;;;;;;;;5055400;28;20435;-59
2022/10/31 13:56:44;;;;;;;;;;;;;;;;;;5070975;28;19944;-61
2022/10/31 13:59:10;;;;;;;;;;;;;;;;;;5066359;28;19912;-61
2022/10/31 14:01:36;;;;;;;;;;;;;;;;;;5070800;28;19912;-59
2022/10/31 14:04:02;;;;;;;;;;;;;;;;;;5062907;28;19924;-61
2022/10/31 14:06:28;;;;;;;;;;;;;;;;;;5069918;28;20381;-61
2022/10/31 14:08:54;;;;;;;;;;;;;;;;;;5068026;28;19959;-62
2022/10/31 14:11:20;;;;;;;;;;;;;;;;;;5063701;28;20004;-61
2022/10/31 14:13:46;;;;;;;;;;;;;;;;;;5058990;28;19913;-59
2022/10/31 14:16:12;;;;;;;;;;;;;;;;;;5068285;28;20386;-59
2022/10/31 14:18:38;;;;;;;;;;;;;;;;;;5070716;28;19916;-61
2022/10/31 14:21:03;;;;;;;;;;;;;;;;;;5069766;28;19955;-61
2022/10/31 14:23:29;;;;;;;;;;;;;;;;;;5071046;28;19913;-61
2022/10/31 14:25:55;;;;;;;;;;;;;;;;;;5070236;28;19969;-62
2022/10/31 14:28:21;;;;;;;;;;;;;;;;;;5056623;28;19908;-61
2022/10/31 14:30:47;;;;;;;;;;;;;;;;;;5061269;28;20024;-59
2022/10/31 14:33:13;;;;;;;;;;;;;;;;;;5066142;28;19917;-61
2022/10/31 14:35:39;;;;;;;;;;;;;;;;;;5070499;28;20431;-62
2022/10/31 14:38:05;;;;;;;;;;;;;;;;;;5067723;28;19999;-63
2022/10/31 14:40:31;;;;;;;;;;;;;;;;;;5055238;28;19917;-62
2022/10/31 14:42:57;;;;;;;;;;;;;;;;;;5056966;28;19956;-62
2022/10/31 14:45:23;;;;;;;;;;;;;;;;;;5063116;28;20473;-61
2022/10/31 14:47:49;;;;;;;;;;;;;;;;;;5069639;28;19947;-62
2022/10/31 14:50:15;;;;;;;;;;;;;;;;;;5070067;28;19951;-62
2022/10/31 14:52:41;;;;;;;;;;;;;;;;;;5068061;28;19912;-62
2022/10/31 14:55:07;;;;;;;;;;;;;;;;;;5063902;28;19966;-60
2022/10/31 14:57:32;;;;;;;;;;;;;;;;;;5065946;28;19913;-62
2022/10/31 14:59:58;;;;;;;;;;;;;;;;;;5069147;28;19919;-62
2022/10/31 15:02:24;;;;;;;;;;;;;;;;;;5063332;28;20390;-62
2022/10/31 15:04:50;;;;;;;;;;;;;;;;;;5060425;28;19993;-62
2022/10/31 15:07:16;;;;;;;;;;;;;;;;;;5067074;28;19912;-62
2022/10/31 15:09:45;;;;;;;;;;;;;;;;;;5059558;28;19924;-62
2022/10/31 15:12:11;;;;;;;;;;;;;;;;;;5067175;28;19959;-61
2022/10/31 15:14:37;;;;;;;;;;;;;;;;;;5069257;28;19961;-62
2022/10/31 15:17:03;;;;;;;;;;;;;;;;;;5063704;28;20404;-61
2022/10/31 15:19:29;;;;;;;;;;;;;;;;;;5068066;28;20011;-62
2022/10/31 15:21:54;;;;;;;;;;;;;;;;;;5063125;28;19912;-62
2022/10/31 15:24:21;;;;;;;;;;;;;;;;;;5059597;28;19924;-61
2022/10/31 15:26:46;;;;;;;;;;;;;;;;;;5067770;28;19999;-62
2022/10/31 15:29:12;;;;;;;;;;;;;;;;;;5064084;28;20434;-62
2022/10/31 15:31:38;;;;;;;;;;;;;;;;;;5061788;28;20007;-62
2022/10/31 15:34:04;;;;;;;;;;;;;;;;;;5057262;28;19919;-62
2022/10/31 15:36:30;;;;;;;;;;;;;;;;;;5065595;28;19970;-62
2022/10/31 15:38:57;;;;;;;;;;;;;;;;;;5068861;28;19965;-61
2022/10/31 15:41:23;;;;;;;;;;;;;;;;;;5067704;28;19920;-62
2022/10/31 15:43:49;;;;;;;;;;;;;;;;;;5075395;28;20386;-62
2022/10/31 15:46:15;;;;;;;;;;;;;;;;;;5073739;28;19995;-62
2022/10/31 15:48:41;;;;;;;;;;;;;;;;;;5049942;28;20272;-62
2022/10/31 15:51:07;;;;;;;;;;;;;;;;;;5066957;28;19921;-62
2022/10/31 15:53:33;;;;;;;;;;;;;;;;;;5071396;28;20031;-62
2022/10/31 15:55:58;;;;;;;;;;;;;;;;;;5066321;28;19913;-62
2022/10/31 15:58:24;;;;;;;;;;;;;;;;;;5071029;28;19984;-61
2022/10/31 16:00:50;;;;;;;;;;;;;;;;;;5071522;28;19908;-62
2022/10/31 16:03:16;;;;;;;;;;;;;;;;;;5064572;28;19956;-62
2022/10/31 16:05:42;;;;;;;;;;;;;;;;;;5067626;28;19912;-62
2022/10/31 16:08:08;;;;;;;;;;;;;;;;;;5066999;28;20012;-62
2022/10/31 16:10:37;;;;;;;;;;;;;;;;;;5067849;28;19916;-62
2022/10/31 16:13:03;;;;;;;;;;;;;;;;;;5067289;28;19913;-62
2022/10/31 16:15:29;;;;;;;;;;;;;;;;;;5069961;28;20387;-62
2022/10/31 16:17:55;;;;;;;;;;;;;;;;;;5071747;28;20014;-62
2022/10/31 16:20:21;;;;;;;;;;;;;;;;;;5071173;28;20058;-62
2022/10/31 16:22:47;;;;;;;;;;;;;;;;;;5059363;28;20073;-60
2022/10/31 16:25:13;;;;;;;;;;;;;;;;;;5063835;28;20434;-62
2022/10/31 16:27:39;;;;;;;;;;;;;;;;;;5067828;28;20344;-62
2022/10/31 16:30:06;;;;;;;;;;;;;;;;;;5072717;28;20005;-62
2022/10/31 16:32:32;;;;;;;;;;;;;;;;;;5064523;28;19913;-62
2022/10/31 16:34:58;;;;;;;;;;;;;;;;;;5067365;28;20556;-62
2022/10/31 16:37:24;;;;;;;;;;;;;;;;;;5065424;28;19967;-62
2022/10/31 16:39:49;;;;;;;;;;;;;;;;;;5063759;28;19944;-62